Time;durP1;ratioP1;P1;durP2;ratioP2;P2;SDS_P1;SDS_P2;PMS_P1;PMS_P2;Temp;Humidity;BMP_temperature;BMP_pressure;BME280_temperature;BME280_humidity;BME280_pressure;Samples;Min_cycle;Max_cycle;Signal;HPM_P1;HPM_P2
2022/11/16 00:00:34;;;;;;;33.97;21.80;;;9.60;99.90;;;;;;4938375;28;20317;-80
2022/11/16 00:03:04;;;;;;;36.70;22.30;;;9.60;99.90;;;;;;4960039;28;20547;-79
2022/11/16 00:05:34;;;;;;;37.30;23.27;;;9.60;99.90;;;;;;4950056;28;20200;-77
2022/11/16 00:08:02;;;;;;;24.53;15.30;;;9.60;99.90;;;;;;4945786;29;20205;-78
2022/11/16 00:10:31;;;;;;;11.77;8.30;;;9.50;99.90;;;;;;4936128;29;20658;-78
2022/11/16 00:12:59;;;;;;;13.40;6.63;;;9.60;99.90;;;;;;4936129;29;20192;-78
2022/11/16 00:15:28;;;;;;;4.87;3.47;;;9.60;99.90;;;;;;4936154;29;20207;-78
2022/11/16 00:17:56;;;;;;;4.37;3.07;;;9.70;99.90;;;;;;4936067;29;20273;-79
2022/11/16 00:20:25;;;;;;;3.40;2.50;;;9.70;99.90;;;;;;4935860;29;20210;-78
2022/11/16 00:22:55;;;;;;;2.93;2.40;;;9.80;99.90;;;;;;4935951;29;20232;-80
2022/11/16 00:25:23;;;;;;;2.97;2.10;;;9.70;99.90;;;;;;4936056;29;20238;-82
2022/11/16 00:27:52;;;;;;;3.87;2.30;;;9.70;99.90;;;;;;4935861;29;20599;-81
2022/11/16 00:30:20;;;;;;;3.40;2.77;;;9.70;99.90;;;;;;4935958;29;20277;-79
2022/11/16 00:32:49;;;;;;;5.57;2.63;;;9.70;99.90;;;;;;4973343;28;20229;-81
2022/11/16 00:35:18;;;;;;;5.27;3.60;;;9.70;99.90;;;;;;4974323;28;20226;-81
2022/11/16 00:37:46;;;;;;;4.70;2.43;;;9.70;99.90;;;;;;4935588;28;20580;-79
2022/11/16 00:40:16;;;;;;;3.23;2.30;;;9.80;99.90;;;;;;4953910;28;20201;-79
2022/11/16 00:42:45;;;;;;;2.33;2.03;;;9.80;99.90;;;;;;4953641;28;20251;-81
2022/11/16 00:45:13;;;;;;;2.40;2.23;;;9.80;99.90;;;;;;4931682;28;20206;-80
2022/11/16 00:47:42;;;;;;;5.97;2.33;;;9.80;99.90;;;;;;4954281;28;20190;-80
2022/11/16 00:50:11;;;;;;;4.27;2.10;;;9.80;99.90;;;;;;4954609;28;20733;-79
2022/11/16 00:52:39;;;;;;;7.63;2.33;;;9.70;99.90;;;;;;4936350;29;20237;-79
2022/11/16 00:55:08;;;;;;;2.37;2.17;;;9.70;99.90;;;;;;4937504;29;20210;-80
2022/11/16 00:57:38;;;;;;;2.77;2.13;;;9.70;99.90;;;;;;4955455;28;20206;-80
2022/11/16 01:00:09;;;;;;;3.77;2.53;;;9.70;99.90;;;;;;4936792;29;20212;-80
2022/11/16 01:02:39;;;;;;;6.67;3.37;;;9.70;99.90;;;;;;4941014;28;20207;-80
2022/11/16 01:05:09;;;;;;;5.20;3.23;;;9.70;99.90;;;;;;4938113;29;20233;-80
2022/11/16 01:07:39;;;;;;;3.47;2.37;;;9.70;99.90;;;;;;4954400;28;20202;-80
2022/11/16 01:10:11;;;;;;;2.50;2.30;;;9.70;99.90;;;;;;4954947;29;20231;-80
2022/11/16 01:12:44;;;;;;;2.20;2.00;;;9.80;99.90;;;;;;4955305;29;20550;-80
2022/11/16 01:15:15;;;;;;;2.27;2.17;;;9.60;98.90;;;;;;4937833;29;20211;-82
2022/11/16 01:17:44;;;;;;;2.20;2.00;;;9.70;99.00;;;;;;4955056;29;20202;-80
2022/11/16 01:20:14;;;;;;;4.17;2.47;;;9.60;98.80;;;;;;4937669;29;20569;-80
2022/11/16 01:22:43;;;;;;;4.27;2.30;;;9.60;98.30;;;;;;4954789;28;20303;-80
2022/11/16 01:25:12;;;;;;;4.23;2.70;;;9.60;98.80;;;;;;4954892;29;20673;-80
2022/11/16 01:27:43;;;;;;;2.70;2.30;;;9.70;98.90;;;;;;4937796;28;20228;-81
2022/11/16 01:30:19;;;;;;;3.43;2.47;;;9.70;98.50;;;;;;4937491;29;20288;-80
2022/11/16 01:32:58;;;;;;;3.03;2.37;;;9.60;99.00;;;;;;4937832;29;20711;-79
2022/11/16 01:35:26;;;;;;;2.50;2.40;;;9.60;99.20;;;;;;4954893;29;20285;-81
2022/11/16 01:37:55;;;;;;;2.70;2.20;;;9.60;99.20;;;;;;4954926;28;20201;-79
2022/11/16 01:40:23;;;;;;;2.97;2.37;;;9.60;99.30;;;;;;4954133;28;20236;-80
2022/11/16 01:42:53;;;;;;;2.37;2.17;;;9.60;99.30;;;;;;4930631;29;20290;-80
2022/11/16 01:45:28;;;;;;;2.67;2.47;;;9.60;98.70;;;;;;4915887;29;20207;-80
2022/11/16 01:47:58;;;;;;;2.53;2.37;;;9.60;98.90;;;;;;4899351;29;20202;-79
2022/11/16 01:50:30;;;;;;;4.63;2.40;;;9.60;98.70;;;;;;4915121;29;20267;-78
